Strona główna
METAR-TAF:

METAR-TAF

Lotnisko :

Port lotniczy Kuwejt

Kuwejt, Kuwejt

Szerokość geograficzna: 29-13N, Długość geograficzna: 047-59E, wysokość: 55 m

Aktualna obserwacja pogody

Raport powstał 1 godzina i 8 minut temu, godzina 00:00 UTC
Wiatr 3 kt od zachodnio-północny zachód
Temperatura 28°C
Wilgotność 20%
Ciśnienie 1006 hPa
Widzialność 10 km lub więcej
Brak chmur poniżej 1500 m i brak chmur cumulonimbus

METAR: OKBK 260000Z 29003KT CAVOK 28/03 Q1006 NOSIG

czas: 04:08 (01:08 UTC)

Prognoza

Raport powstał 2 godziny i 23 minut temu, godzina 22:45 UTC
Prognoza ważna od 26 godzina 00 UTC do 27 godzina 06 UTC
Wiatr 3 kt z kierunków zmiennych
Widzialność: 7000 m
bezchmurnie

TAF: OKBK 252245Z 2600/2706 VRB03KT 7000 SKC

Obserwacja i prognoza pogody dla ponad 4000 lotnisk (raport METAR i TAF).

Dostępne stacje oznaczono żółtymi i czerwonymi punktami na mapie.

Najedź kursorem aby zobaczyć nazwę stacji.

Kliknij aby zobaczyć obserwacje i prognozy pogody.

Aby zmienić mapę: kliknij na zielony przycisk z czarnym krzyżykiem, aby powiększyć; na zielony przycisk z myślnikiem, aby pomniejszyć; na zielone strzałki, aby przejść do map sąsiednich.


METAR-TAF: